Time;durP1;ratioP1;P1;durP2;ratioP2;P2;SDS_P1;SDS_P2;PMS_P1;PMS_P2;Temp;Humidity;BMP_temperature;BMP_pressure;BME280_temperature;BME280_humidity;BME280_pressure;Samples;Min_cycle;Max_cycle;Signal;HPM_P1;HPM_P2
2021/08/02 00:00:51;;;;;;;2.80;2.60;;;;;;;;;;5056437;28;20096;-74
2021/08/02 00:03:24;;;;;;;3.65;2.47;;;;;;;;;;5059820;28;20355;-73
2021/08/02 00:05:51;;;;;;;2.92;2.17;;;;;;;;;;5075714;28;20107;-73
2021/08/02 00:08:25;;;;;;;2.88;2.25;;;;;;;;;;5075508;28;20020;-73
2021/08/02 00:10:53;;;;;;;2.83;2.40;;;;;;;;;;5058093;28;20029;-73
2021/08/02 00:13:26;;;;;;;3.63;2.15;;;;;;;;;;5069138;28;20120;-73
2021/08/02 00:15:53;;;;;;;3.05;2.40;;;;;;;;;;5055805;28;20096;-73
2021/08/02 00:18:19;;;;;;;2.60;2.40;;;;;;;;;;5037258;28;20025;-73
2021/08/02 00:20:46;;;;;;;2.58;2.35;;;;;;;;;;5038315;28;20043;-73
2021/08/02 00:23:11;;;;;;;4.40;2.35;;;;;;;;;;5055557;28;20029;-73
2021/08/02 00:25:37;;;;;;;3.38;2.60;;;;;;;;;;5055572;28;20497;-73
2021/08/02 00:28:03;;;;;;;2.67;2.40;;;;;;;;;;5055724;28;20053;-73
2021/08/02 00:30:29;;;;;;;2.60;2.40;;;;;;;;;;5055272;28;20029;-73
2021/08/02 00:32:54;;;;;;;3.85;2.22;;;;;;;;;;5037942;28;20024;-73
2021/08/02 00:35:23;;;;;;;3.67;2.27;;;;;;;;;;5055428;28;20017;-73
2021/08/02 00:37:48;;;;;;;2.67;2.47;;;;;;;;;;5073469;28;20270;-73
2021/08/02 00:40:34;;;;;;;3.60;2.70;;;;;;;;;;5074953;28;20031;-73
2021/08/02 00:43:12;;;;;;;2.85;2.60;;;;;;;;;;5063282;28;20025;-73
2021/08/02 00:45:40;;;;;;;2.92;2.55;;;;;;;;;;5055085;28;20108;-73
2021/08/02 00:48:06;;;;;;;3.08;2.78;;;;;;;;;;5037715;28;20443;-73
2021/08/02 00:50:39;;;;;;;4.13;2.83;;;;;;;;;;5054676;28;20017;-73
2021/08/02 00:53:09;;;;;;;3.47;2.83;;;;;;;;;;5055113;28;20021;-73
2021/08/02 00:55:37;;;;;;;3.00;2.47;;;;;;;;;;5054680;28;20017;-73
2021/08/02 00:58:07;;;;;;;3.22;2.60;;;;;;;;;;5054785;28;20391;-73
2021/08/02 01:00:33;;;;;;;3.95;2.78;;;;;;;;;;5053774;28;20032;-73
2021/08/02 01:03:02;;;;;;;2.88;2.40;;;;;;;;;;5072639;28;20043;-73
2021/08/02 01:05:27;;;;;;;3.83;2.65;;;;;;;;;;5074535;28;20032;-73
2021/08/02 01:07:57;;;;;;;3.67;2.70;;;;;;;;;;5057113;28;20020;-73
2021/08/02 01:10:23;;;;;;;4.53;2.80;;;;;;;;;;5068194;28;20028;-73
2021/08/02 01:12:49;;;;;;;2.83;2.42;;;;;;;;;;5054619;28;20025;-73
2021/08/02 01:15:16;;;;;;;5.15;2.70;;;;;;;;;;5054623;28;20024;-73
2021/08/02 01:17:42;;;;;;;4.38;2.78;;;;;;;;;;5036717;28;20035;-73
2021/08/02 01:20:07;;;;;;;3.78;2.83;;;;;;;;;;5037361;28;20029;-73
2021/08/02 01:22:35;;;;;;;4.28;3.30;;;;;;;;;;5054236;28;20426;-73
2021/08/02 01:25:20;;;;;;;3.65;3.30;;;;;;;;;;5054114;28;20113;-74
2021/08/02 01:27:46;;;;;;;5.50;3.90;;;;;;;;;;5036974;28;20029;-72
2021/08/02 01:30:17;;;;;;;4.60;3.42;;;;;;;;;;5054261;28;20063;-73
2021/08/02 01:32:46;;;;;;;5.68;4.70;;;;;;;;;;5054446;28;20036;-73
2021/08/02 01:35:13;;;;;;;5.25;4.38;;;;;;;;;;5057936;28;20028;-73
2021/08/02 01:37:41;;;;;;;5.20;4.70;;;;;;;;;;5073435;28;20450;-73
2021/08/02 01:40:06;;;;;;;5.38;4.50;;;;;;;;;;5073694;28;20024;-73
2021/08/02 01:42:34;;;;;;;5.32;4.13;;;;;;;;;;5072535;28;20423;-73
2021/08/02 01:45:00;;;;;;;5.35;4.32;;;;;;;;;;5072964;28;20020;-73
2021/08/02 01:47:34;;;;;;;4.75;3.78;;;;;;;;;;5073794;28;20151;-73
2021/08/02 01:50:14;;;;;;;6.63;4.70;;;;;;;;;;5058078;28;20017;-73
2021/08/02 01:52:58;;;;;;;5.00;3.83;;;;;;;;;;5036688;28;20136;-73
2021/08/02 01:55:26;;;;;;;4.10;3.70;;;;;;;;;;5053417;28;20040;-73
2021/08/02 01:57:56;;;;;;;4.18;3.78;;;;;;;;;;5053596;28;20052;-73
2021/08/02 02:00:21;;;;;;;6.15;4.35;;;;;;;;;;5069014;28;20055;-73
2021/08/02 02:02:53;;;;;;;7.45;3.97;;;;;;;;;;5055739;28;20020;-73
2021/08/02 02:05:19;;;;;;;4.13;3.70;;;;;;;;;;5073595;28;20017;-73
2021/08/02 02:07:53;;;;;;;6.78;4.60;;;;;;;;;;5073564;28;20017;-73
2021/08/02 02:10:19;;;;;;;5.93;4.25;;;;;;;;;;5061961;28;20451;-73
2021/08/02 02:12:47;;;;;;;5.78;4.45;;;;;;;;;;5053571;28;20025;-73
2021/08/02 02:15:13;;;;;;;4.57;4.03;;;;;;;;;;5055122;28;20103;-73
2021/08/02 02:17:42;;;;;;;5.80;4.25;;;;;;;;;;5073184;28;20162;-73
2021/08/02 02:20:07;;;;;;;6.03;5.38;;;;;;;;;;5071920;28;20016;-74
2021/08/02 02:22:35;;;;;;;6.57;5.40;;;;;;;;;;5066149;28;20507;-73
2021/08/02 02:25:01;;;;;;;6.28;5.53;;;;;;;;;;5074274;28;20020;-73
2021/08/02 02:27:26;;;;;;;5.18;4.68;;;;;;;;;;5093217;28;20027;-73
2021/08/02 02:29:52;;;;;;;6.13;5.05;;;;;;;;;;5093480;28;20099;-73
2021/08/02 02:32:18;;;;;;;6.40;5.60;;;;;;;;;;5093643;28;20027;-73
2021/08/02 02:34:44;;;;;;;8.02;6.60;;;;;;;;;;5075786;28;20055;-73
2021/08/02 02:37:12;;;;;;;9.00;6.60;;;;;;;;;;5073123;28;20031;-73
2021/08/02 02:39:37;;;;;;;9.23;8.32;;;;;;;;;;5073268;28;20021;-73
2021/08/02 02:42:03;;;;;;;7.18;6.47;;;;;;;;;;5067181;28;20092;-73
2021/08/02 02:44:28;;;;;;;8.15;6.10;;;;;;;;;;5053126;28;20009;-73
2021/08/02 02:46:54;;;;;;;7.00;6.22;;;;;;;;;;5053304;28;20029;-73
2021/08/02 02:49:20;;;;;;;7.07;6.47;;;;;;;;;;5053224;28;20013;-73
2021/08/02 02:51:49;;;;;;;8.65;7.85;;;;;;;;;;5064664;28;20086;-74
2021/08/02 02:54:16;;;;;;;7.85;6.93;;;;;;;;;;5073047;28;20025;-73
2021/08/02 02:56:41;;;;;;;8.48;7.55;;;;;;;;;;5072910;28;20060;-73
2021/08/02 02:59:09;;;;;;;8.73;6.95;;;;;;;;;;5055311;28;20020;-73
2021/08/02 03:01:39;;;;;;;10.63;6.80;;;;;;;;;;5074444;28;20174;-73
2021/08/02 03:04:05;;;;;;;9.55;7.07;;;;;;;;;;5093204;28;20047;-73
2021/08/02 03:06:33;;;;;;;9.77;8.27;;;;;;;;;;5073953;28;20078;-73
2021/08/02 03:08:59;;;;;;;9.05;8.13;;;;;;;;;;5072812;28;20027;-73
2021/08/02 03:11:24;;;;;;;8.18;7.43;;;;;;;;;;5070696;28;20028;-73
2021/08/02 03:13:50;;;;;;;12.20;8.45;;;;;;;;;;5093624;28;20450;-73
2021/08/02 03:16:19;;;;;;;9.43;7.90;;;;;;;;;;5087049;28;20029;-73
2021/08/02 03:18:47;;;;;;;9.50;7.25;;;;;;;;;;5072699;28;20396;-73
2021/08/02 03:21:15;;;;;;;8.15;7.13;;;;;;;;;;5072348;28;20031;-73
2021/08/02 03:23:47;;;;;;;8.52;7.65;;;;;;;;;;5076148;28;20039;-73
2021/08/02 03:26:14;;;;;;;12.80;9.57;;;;;;;;;;5074844;28;20033;-73
2021/08/02 03:28:55;;;;;;;12.02;8.80;;;;;;;;;;5058989;28;20460;-73
2021/08/02 03:31:26;;;;;;;8.50;7.60;;;;;;;;;;5076252;28;20116;-73
2021/08/02 03:33:52;;;;;;;10.32;9.00;;;;;;;;;;5076677;28;20347;-73
2021/08/02 03:36:18;;;;;;;10.95;9.85;;;;;;;;;;5058753;28;20130;-73
2021/08/02 03:38:47;;;;;;;11.82;10.07;;;;;;;;;;5076625;28;20024;-73
2021/08/02 03:41:15;;;;;;;11.82;9.85;;;;;;;;;;5075327;28;20024;-73
2021/08/02 03:43:43;;;;;;;11.02;9.40;;;;;;;;;;5065979;28;20147;-73
2021/08/02 03:46:09;;;;;;;11.77;9.73;;;;;;;;;;5094724;28;20020;-73
2021/08/02 03:48:36;;;;;;;10.20;9.25;;;;;;;;;;5056369;28;20099;-73
2021/08/02 03:51:02;;;;;;;11.40;9.93;;;;;;;;;;5059081;28;20025;-80
2021/08/02 03:53:37;;;;;;;18.20;11.48;;;;;;;;;;5037972;28;20094;-78
2021/08/02 03:56:02;;;;;;;12.50;11.23;;;;;;;;;;5063012;28;20458;-78
2021/08/02 03:58:27;;;;;;;15.45;11.38;;;;;;;;;;5065793;28;20021;-79
2021/08/02 04:00:53;;;;;;;12.02;10.88;;;;;;;;;;5056882;28;20025;-80
2021/08/02 04:03:18;;;;;;;13.32;10.68;;;;;;;;;;5055774;28;20032;-80
2021/08/02 04:05:43;;;;;;;13.50;12.10;;;;;;;;;;5071668;28;20030;-79
2021/08/02 04:08:08;;;;;;;11.57;10.43;;;;;;;;;;5075862;28;20017;-79
2021/08/02 04:10:36;;;;;;;12.68;11.48;;;;;;;;;;5089194;28;20028;-79
2021/08/02 04:13:01;;;;;;;13.88;12.48;;;;;;;;;;5077819;28;20527;-79
2021/08/02 04:15:28;;;;;;;15.43;13.53;;;;;;;;;;5082513;28;20032;-79
2021/08/02 04:17:54;;;;;;;14.35;12.82;;;;;;;;;;5057834;28;20258;-79
2021/08/02 04:20:21;;;;;;;13.87;12.47;;;;;;;;;;5065097;28;20032;-79
2021/08/02 04:22:47;;;;;;;14.07;12.82;;;;;;;;;;5037960;28;20345;-79
2021/08/02 04:25:13;;;;;;;14.57;13.18;;;;;;;;;;5055569;28;20082;-80
2021/08/02 04:27:38;;;;;;;16.45;14.77;;;;;;;;;;5059631;28;20024;-80
2021/08/02 04:30:04;;;;;;;16.83;14.40;;;;;;;;;;5072342;28;20449;-80
2021/08/02 04:32:29;;;;;;;18.23;15.25;;;;;;;;;;5074933;28;20056;-80
2021/08/02 04:34:54;;;;;;;18.60;15.30;;;;;;;;;;5074374;28;20500;-81
2021/08/02 04:37:20;;;;;;;17.50;14.27;;;;;;;;;;5069622;28;20023;-80
2021/08/02 04:39:47;;;;;;;18.55;16.05;;;;;;;;;;5068144;28;20016;-80
2021/08/02 04:42:15;;;;;;;18.08;16.10;;;;;;;;;;5065807;28;20044;-79
2021/08/02 04:44:40;;;;;;;17.85;15.15;;;;;;;;;;5066018;28;20064;-80
2021/08/02 04:47:05;;;;;;;17.15;15.45;;;;;;;;;;5065405;28;20025;-81
2021/08/02 04:49:31;;;;;;;18.33;16.58;;;;;;;;;;5053575;28;20090;-80
2021/08/02 04:51:58;;;;;;;18.40;16.60;;;;;;;;;;5060333;28;20047;-82
2021/08/02 04:54:23;;;;;;;20.88;17.85;;;;;;;;;;5064369;28;20573;-81
2021/08/02 04:56:48;;;;;;;18.52;16.52;;;;;;;;;;5065277;28;20098;-76
2021/08/02 04:59:16;;;;;;;19.83;17.80;;;;;;;;;;5064507;28;20021;-81
2021/08/02 05:01:41;;;;;;;22.25;17.35;;;;;;;;;;5062822;28;20378;-81
2021/08/02 05:04:06;;;;;;;19.17;16.98;;;;;;;;;;5063105;28;20462;-82
2021/08/02 05:06:33;;;;;;;13.90;12.57;;;;;;;;;;5063332;28;20461;-81
2021/08/02 05:08:59;;;;;;;14.77;11.70;;;;;;;;;;5061780;28;20266;-80
2021/08/02 05:11:26;;;;;;;12.07;10.10;;;;;;;;;;5065824;28;20443;-79
2021/08/02 05:13:54;;;;;;;13.40;11.18;;;;;;;;;;5064007;28;20013;-79
2021/08/02 05:16:19;;;;;;;11.38;9.30;;;;;;;;;;5065889;28;20078;-78
2021/08/02 05:18:44;;;;;;;11.27;10.15;;;;;;;;;;5065310;28;20037;-79
2021/08/02 05:21:10;;;;;;;11.67;10.47;;;;;;;;;;5065909;28;20016;-75
2021/08/02 05:23:35;;;;;;;9.40;8.50;;;;;;;;;;5068184;28;20305;-77
2021/08/02 05:26:00;;;;;;;8.73;7.82;;;;;;;;;;5063740;28;20478;-77
2021/08/02 05:28:28;;;;;;;8.48;7.45;;;;;;;;;;5061503;28;20134;-76
2021/08/02 05:30:54;;;;;;;9.50;7.78;;;;;;;;;;5056191;28;20021;-78
2021/08/02 05:33:19;;;;;;;9.32;8.40;;;;;;;;;;5064029;28;20031;-77
2021/08/02 05:35:44;;;;;;;8.45;7.75;;;;;;;;;;5066474;28;20013;-76
2021/08/02 05:38:12;;;;;;;9.73;8.02;;;;;;;;;;5059405;28;20069;-79
2021/08/02 05:40:39;;;;;;;8.48;7.63;;;;;;;;;;5046427;28;20460;-74
2021/08/02 05:43:05;;;;;;;7.70;6.95;;;;;;;;;;5053766;28;20029;-74
2021/08/02 05:45:30;;;;;;;8.25;6.85;;;;;;;;;;5053778;28;20032;-76
2021/08/02 05:47:56;;;;;;;7.45;6.80;;;;;;;;;;5057071;28;20008;-80
2021/08/02 05:50:22;;;;;;;7.78;6.95;;;;;;;;;;5059203;28;20032;-77
2021/08/02 05:52:49;;;;;;;7.03;6.25;;;;;;;;;;5053884;28;20041;-78
2021/08/02 05:55:17;;;;;;;6.53;5.88;;;;;;;;;;5054133;28;20079;-80
2021/08/02 05:57:44;;;;;;;7.38;6.50;;;;;;;;;;5053927;28;20133;-80
2021/08/02 06:00:10;;;;;;;7.90;6.78;;;;;;;;;;5053348;28;20028;-81
2021/08/02 06:02:36;;;;;;;8.90;7.22;;;;;;;;;;5064715;28;20047;-82
2021/08/02 06:05:03;;;;;;;9.07;8.05;;;;;;;;;;5071309;28;20020;-82
2021/08/02 06:07:30;;;;;;;8.20;7.40;;;;;;;;;;5073160;28;20100;-79
2021/08/02 06:09:56;;;;;;;11.07;8.02;;;;;;;;;;5071757;28;20074;-81
2021/08/02 06:12:21;;;;;;;8.63;7.75;;;;;;;;;;5069845;28;20028;-80
2021/08/02 06:14:46;;;;;;;9.60;8.20;;;;;;;;;;5069724;28;20068;-80
2021/08/02 06:17:17;;;;;;;8.60;7.80;;;;;;;;;;5070912;28;20056;-80
2021/08/02 06:19:44;;;;;;;10.35;8.30;;;;;;;;;;5062371;28;20260;-80
2021/08/02 06:22:11;;;;;;;8.85;7.53;;;;;;;;;;5063565;28;20024;-80
2021/08/02 06:24:36;;;;;;;9.38;7.82;;;;;;;;;;5065025;28;20062;-80
2021/08/02 06:27:02;;;;;;;9.23;7.22;;;;;;;;;;5062918;28;20040;-80
2021/08/02 06:29:27;;;;;;;10.70;7.57;;;;;;;;;;5061202;28;20016;-80
2021/08/02 06:31:52;;;;;;;9.43;7.65;;;;;;;;;;5062619;28;20032;-80
2021/08/02 06:34:20;;;;;;;8.80;7.55;;;;;;;;;;5044183;28;20017;-80
2021/08/02 06:36:50;;;;;;;7.97;7.22;;;;;;;;;;5063462;28;20036;-80
2021/08/02 06:39:15;;;;;;;8.25;7.45;;;;;;;;;;5061269;28;20028;-81
2021/08/02 06:41:43;;;;;;;6.82;5.93;;;;;;;;;;5064642;28;20071;-80
2021/08/02 06:44:10;;;;;;;6.22;5.63;;;;;;;;;;5058769;28;20109;-80
2021/08/02 06:46:35;;;;;;;5.95;5.45;;;;;;;;;;5063774;28;20023;-80
2021/08/02 06:49:03;;;;;;;7.20;5.47;;;;;;;;;;5061007;28;20362;-80
2021/08/02 06:51:31;;;;;;;6.55;5.95;;;;;;;;;;5047352;28;20256;-80
2021/08/02 06:54:01;;;;;;;6.80;6.15;;;;;;;;;;5059070;28;20017;-80
2021/08/02 06:56:28;;;;;;;7.10;6.07;;;;;;;;;;5071021;28;20036;-80
2021/08/02 06:58:58;;;;;;;6.80;6.20;;;;;;;;;;5072106;28;20047;-81
2021/08/02 07:01:25;;;;;;;9.10;6.75;;;;;;;;;;5070841;28;20094;-80
2021/08/02 07:03:50;;;;;;;8.63;7.13;;;;;;;;;;5066769;28;20352;-80
2021/08/02 07:06:16;;;;;;;8.88;6.60;;;;;;;;;;5068396;28;20016;-80
2021/08/02 07:08:43;;;;;;;7.43;6.22;;;;;;;;;;5060383;28;20024;-80
2021/08/02 07:11:10;;;;;;;7.45;6.75;;;;;;;;;;5072343;28;20024;-80
2021/08/02 07:13:38;;;;;;;8.70;6.55;;;;;;;;;;5066428;28;20029;-81
2021/08/02 07:16:03;;;;;;;7.47;6.88;;;;;;;;;;5052851;28;20048;-81
2021/08/02 07:18:35;;;;;;;7.72;7.00;;;;;;;;;;5052822;28;20430;-75
2021/08/02 07:21:00;;;;;;;7.50;6.70;;;;;;;;;;5062119;28;20096;-82
2021/08/02 07:23:26;;;;;;;7.43;6.72;;;;;;;;;;5060964;28;20100;-84
2021/08/02 07:25:51;;;;;;;7.32;6.63;;;;;;;;;;5046592;28;20042;-83
2021/08/02 07:28:19;;;;;;;7.10;6.38;;;;;;;;;;5060945;28;20018;-82
2021/08/02 07:30:44;;;;;;;7.03;6.43;;;;;;;;;;5066203;28;20020;-81
2021/08/02 07:33:09;;;;;;;6.40;5.80;;;;;;;;;;5073187;28;20328;-81
2021/08/02 07:35:34;;;;;;;8.00;7.23;;;;;;;;;;5083825;28;20040;-81
2021/08/02 07:38:00;;;;;;;7.22;6.53;;;;;;;;;;5080066;28;20275;-81
2021/08/02 07:40:25;;;;;;;7.40;6.63;;;;;;;;;;5073365;28;20366;-80
2021/08/02 07:42:51;;;;;;;7.95;6.80;;;;;;;;;;5068394;28;20609;-80
2021/08/02 07:45:16;;;;;;;7.90;7.20;;;;;;;;;;5054630;28;20025;-80
2021/08/02 07:47:42;;;;;;;9.15;7.22;;;;;;;;;;5072704;28;20093;-80
2021/08/02 07:50:07;;;;;;;8.23;7.40;;;;;;;;;;5073278;28;20016;-81
2021/08/02 07:52:33;;;;;;;8.80;7.90;;;;;;;;;;5065847;28;20523;-81
2021/08/02 07:55:01;;;;;;;8.95;8.13;;;;;;;;;;5052608;28;20108;-79
2021/08/02 07:57:26;;;;;;;8.48;7.45;;;;;;;;;;5054356;28;20103;-79
2021/08/02 07:59:56;;;;;;;8.30;7.60;;;;;;;;;;5058733;28;20365;-80
2021/08/02 08:02:21;;;;;;;7.43;6.78;;;;;;;;;;5041838;28;20534;-79
2021/08/02 08:04:46;;;;;;;9.18;8.30;;;;;;;;;;5058197;28;20120;-79
2021/08/02 08:07:12;;;;;;;9.48;8.50;;;;;;;;;;5062941;28;20435;-79
2021/08/02 08:09:37;;;;;;;9.03;8.13;;;;;;;;;;5074341;28;20336;-79
2021/08/02 08:12:02;;;;;;;10.05;9.07;;;;;;;;;;5068955;28;20542;-78
2021/08/02 08:14:28;;;;;;;8.90;8.10;;;;;;;;;;5056641;28;20108;-79
2021/08/02 08:16:53;;;;;;;9.00;8.20;;;;;;;;;;5075321;28;20019;-79
2021/08/02 08:19:20;;;;;;;9.17;8.27;;;;;;;;;;5057991;28;20390;-79
2021/08/02 08:21:46;;;;;;;8.85;7.95;;;;;;;;;;5072585;28;20386;-79
2021/08/02 08:24:13;;;;;;;8.93;8.10;;;;;;;;;;5055455;28;20183;-79
2021/08/02 08:26:41;;;;;;;8.48;7.72;;;;;;;;;;5037653;28;20447;-79
2021/08/02 08:29:06;;;;;;;8.32;7.45;;;;;;;;;;5055484;28;20451;-79
2021/08/02 08:31:31;;;;;;;10.07;8.50;;;;;;;;;;5070696;28;20104;-79
2021/08/02 08:33:59;;;;;;;9.13;8.32;;;;;;;;;;5067974;28;20251;-79
2021/08/02 08:36:27;;;;;;;8.65;7.82;;;;;;;;;;5066480;28;20447;-79
2021/08/02 08:38:52;;;;;;;10.55;8.70;;;;;;;;;;5071713;28;20036;-79
2021/08/02 08:41:18;;;;;;;11.07;8.63;;;;;;;;;;5071573;28;20028;-78
2021/08/02 08:43:46;;;;;;;8.93;7.80;;;;;;;;;;5070561;28;20395;-79
2021/08/02 08:46:11;;;;;;;8.48;7.75;;;;;;;;;;5067450;28;20017;-79
2021/08/02 08:48:36;;;;;;;8.73;7.75;;;;;;;;;;5055347;28;20520;-79
2021/08/02 08:51:02;;;;;;;9.33;7.83;;;;;;;;;;5065089;28;20025;-80
2021/08/02 08:53:28;;;;;;;9.18;8.18;;;;;;;;;;5074593;28;20271;-80
2021/08/02 08:55:53;;;;;;;9.18;8.38;;;;;;;;;;5075343;28;20477;-81
2021/08/02 08:58:21;;;;;;;13.80;8.88;;;;;;;;;;5071676;28;20024;-81
2021/08/02 09:00:46;;;;;;;12.25;10.20;;;;;;;;;;5075385;28;20020;-82
2021/08/02 09:03:15;;;;;;;9.57;8.60;;;;;;;;;;5075026;28;20112;-82
2021/08/02 09:05:40;;;;;;;10.65;9.63;;;;;;;;;;5069437;28;20251;-81
2021/08/02 09:08:17;;;;;;;12.13;10.73;;;;;;;;;;5053820;28;20023;-82
2021/08/02 09:10:54;;;;;;;10.45;8.77;;;;;;;;;;5074744;28;20020;-82
2021/08/02 09:13:27;;;;;;;10.55;8.18;;;;;;;;;;5075006;28;20031;-82
2021/08/02 09:15:54;;;;;;;8.43;7.60;;;;;;;;;;5067812;28;20057;-82
2021/08/02 09:18:25;;;;;;;7.65;6.93;;;;;;;;;;5060959;28;20024;-82
2021/08/02 09:21:11;;;;;;;7.47;6.78;;;;;;;;;;5070313;28;20343;-82
2021/08/02 09:23:46;;;;;;;7.43;6.65;;;;;;;;;;5072323;28;20405;-81
2021/08/02 09:26:11;;;;;;;6.40;5.80;;;;;;;;;;5037179;28;20021;-81
2021/08/02 09:28:38;;;;;;;7.57;6.05;;;;;;;;;;5054446;28;20072;-82
2021/08/02 09:31:04;;;;;;;7.90;6.45;;;;;;;;;;5071197;28;20028;-82
2021/08/02 09:33:45;;;;;;;6.38;5.78;;;;;;;;;;5073736;28;20029;-82
2021/08/02 09:36:11;;;;;;;8.82;6.47;;;;;;;;;;5073838;28;20021;-83
2021/08/02 09:38:36;;;;;;;8.25;6.35;;;;;;;;;;5068365;28;20039;-82
2021/08/02 09:41:01;;;;;;;6.88;6.20;;;;;;;;;;5054071;28;20363;-82
2021/08/02 09:43:28;;;;;;;5.72;5.13;;;;;;;;;;5054290;28;20025;-82
2021/08/02 09:45:58;;;;;;;4.72;4.32;;;;;;;;;;5072953;28;20045;-82
2021/08/02 09:48:40;;;;;;;4.30;4.00;;;;;;;;;;5074575;28;20017;-82
2021/08/02 09:51:31;;;;;;;6.38;4.30;;;;;;;;;;5073511;28;20111;-82
2021/08/02 09:53:57;;;;;;;4.20;3.80;;;;;;;;;;5069627;28;20032;-82
2021/08/02 09:56:25;;;;;;;3.70;3.40;;;;;;;;;;5044460;28;20352;-82
2021/08/02 09:58:50;;;;;;;3.65;3.35;;;;;;;;;;5054356;28;20338;-82
2021/08/02 10:01:16;;;;;;;7.95;7.13;;;;;;;;;;5060748;28;20427;-82
2021/08/02 10:03:42;;;;;;;8.82;7.63;;;;;;;;;;5093804;28;20016;-82
2021/08/02 10:06:10;;;;;;;11.68;8.52;;;;;;;;;;5093874;28;20066;-83
2021/08/02 10:08:36;;;;;;;8.48;7.57;;;;;;;;;;5084958;28;20016;-82
2021/08/02 10:11:02;;;;;;;7.38;6.32;;;;;;;;;;5065872;28;20025;-82
2021/08/02 10:13:28;;;;;;;8.50;6.43;;;;;;;;;;5073563;28;20024;-82
2021/08/02 10:15:54;;;;;;;7.85;6.97;;;;;;;;;;5070423;28;20099;-82
2021/08/02 10:18:21;;;;;;;6.80;6.10;;;;;;;;;;5066781;28;20013;-82
2021/08/02 10:20:47;;;;;;;8.55;6.13;;;;;;;;;;5061598;28;20343;-82
2021/08/02 10:23:24;;;;;;;6.85;5.88;;;;;;;;;;5069462;28;20512;-82
2021/08/02 10:25:52;;;;;;;6.97;5.38;;;;;;;;;;5066674;28;20435;-82
2021/08/02 10:28:20;;;;;;;5.78;5.20;;;;;;;;;;5056257;28;20016;-83
2021/08/02 10:30:47;;;;;;;5.93;4.88;;;;;;;;;;5067355;28;20370;-82
2021/08/02 10:33:14;;;;;;;7.30;5.53;;;;;;;;;;5072869;28;20043;-81
2021/08/02 10:35:48;;;;;;;5.70;5.20;;;;;;;;;;5073834;28;20044;-82
2021/08/02 10:38:14;;;;;;;5.93;5.40;;;;;;;;;;5068996;28;20029;-82
2021/08/02 10:40:43;;;;;;;7.18;5.75;;;;;;;;;;5067893;28;20024;-82
2021/08/02 10:43:11;;;;;;;7.53;5.20;;;;;;;;;;5072552;28;20077;-82
2021/08/02 10:45:38;;;;;;;5.65;4.82;;;;;;;;;;5053236;28;20029;-82
2021/08/02 10:48:03;;;;;;;5.72;4.40;;;;;;;;;;5057851;28;20028;-82
2021/08/02 10:50:30;;;;;;;6.15;4.38;;;;;;;;;;5071485;28;20028;-82
2021/08/02 10:53:00;;;;;;;6.05;4.43;;;;;;;;;;5073376;28;20029;-82
2021/08/02 10:55:29;;;;;;;6.40;4.40;;;;;;;;;;5073295;28;20028;-82
2021/08/02 10:57:57;;;;;;;4.78;4.03;;;;;;;;;;5066701;28;20423;-82
2021/08/02 11:00:23;;;;;;;7.00;3.55;;;;;;;;;;5046732;28;20025;-72
2021/08/02 11:02:50;;;;;;;5.47;3.80;;;;;;;;;;5068239;28;20033;-76
2021/08/02 11:05:15;;;;;;;4.65;2.90;;;;;;;;;;5053220;28;20021;-73
2021/08/02 11:07:40;;;;;;;3.20;2.90;;;;;;;;;;5053340;28;20038;-73
2021/08/02 11:10:08;;;;;;;5.50;3.57;;;;;;;;;;5057091;28;20012;-77
2021/08/02 11:12:41;;;;;;;4.88;3.55;;;;;;;;;;5072965;28;20729;-74
2021/08/02 11:15:09;;;;;;;5.38;3.72;;;;;;;;;;5073344;28;20162;-74
2021/08/02 11:17:34;;;;;;;5.72;3.55;;;;;;;;;;5073354;28;20024;-75
2021/08/02 11:20:08;;;;;;;3.42;3.13;;;;;;;;;;5052441;28;20012;-75
2021/08/02 11:22:38;;;;;;;7.35;3.35;;;;;;;;;;5090472;28;20446;-74
2021/08/02 11:25:04;;;;;;;6.03;3.38;;;;;;;;;;5068357;28;20363;-75
2021/08/02 11:27:32;;;;;;;4.03;2.75;;;;;;;;;;5093197;28;20016;-75
2021/08/02 11:29:57;;;;;;;4.90;3.03;;;;;;;;;;5093276;28;20032;-75
2021/08/02 11:32:22;;;;;;;5.20;2.60;;;;;;;;;;5072582;28;20364;-75
2021/08/02 11:34:52;;;;;;;6.47;3.20;;;;;;;;;;5063424;28;20083;-75
2021/08/02 11:37:20;;;;;;;5.03;3.33;;;;;;;;;;5062277;28;20027;-75
2021/08/02 11:39:49;;;;;;;5.57;3.90;;;;;;;;;;5053259;28;20096;-76
2021/08/02 11:42:15;;;;;;;6.15;3.88;;;;;;;;;;5055749;28;20029;-75
2021/08/02 11:44:44;;;;;;;6.45;4.32;;;;;;;;;;5055809;28;20009;-74
2021/08/02 11:47:11;;;;;;;5.63;4.03;;;;;;;;;;5053329;28;20032;-75
2021/08/02 11:49:38;;;;;;;9.65;4.50;;;;;;;;;;5064696;28;20021;-75
2021/08/02 11:52:04;;;;;;;8.05;4.63;;;;;;;;;;5056494;28;20559;-75
2021/08/02 11:54:29;;;;;;;6.15;4.78;;;;;;;;;;5057363;28;20162;-75
2021/08/02 11:56:54;;;;;;;8.90;4.93;;;;;;;;;;5065513;28;20060;-75
2021/08/02 11:59:23;;;;;;;7.70;4.60;;;;;;;;;;5056074;28;20613;-75
2021/08/02 12:01:50;;;;;;;6.50;4.20;;;;;;;;;;5047715;28;20033;-75
2021/08/02 12:04:16;;;;;;;5.95;4.63;;;;;;;;;;5064743;28;20057;-75
2021/08/02 12:06:54;;;;;;;7.50;4.32;;;;;;;;;;5055827;28;20017;-75
2021/08/02 12:09:28;;;;;;;6.00;3.75;;;;;;;;;;5055953;28;20105;-75
2021/08/02 12:11:53;;;;;;;7.05;4.57;;;;;;;;;;5038548;28;20459;-75
2021/08/02 12:14:24;;;;;;;8.32;4.55;;;;;;;;;;5055579;28;20110;-75
2021/08/02 12:17:01;;;;;;;8.48;4.18;;;;;;;;;;5056154;28;20017;-80
2021/08/02 12:19:27;;;;;;;8.80;4.40;;;;;;;;;;5056063;28;20048;-79
2021/08/02 12:21:56;;;;;;;5.75;4.30;;;;;;;;;;5055541;28;20411;-78
2021/08/02 12:24:23;;;;;;;9.00;3.78;;;;;;;;;;5075797;28;20024;-79
2021/08/02 12:26:52;;;;;;;6.07;2.95;;;;;;;;;;5058245;28;20012;-79
2021/08/02 12:29:27;;;;;;;7.40;3.00;;;;;;;;;;5076016;28;20013;-77
2021/08/02 12:31:54;;;;;;;6.85;2.90;;;;;;;;;;5048278;28;20048;-79
2021/08/02 12:34:22;;;;;;;7.60;3.10;;;;;;;;;;5055852;28;20436;-85
2021/08/02 12:36:47;;;;;;;9.90;2.58;;;;;;;;;;5055602;28;20641;-80
2021/08/02 12:39:15;;;;;;;5.78;2.83;;;;;;;;;;5056872;28;20096;-82
2021/08/02 12:41:40;;;;;;;4.22;2.65;;;;;;;;;;5068944;28;20111;-85
2021/08/02 12:44:05;;;;;;;4.50;2.03;;;;;;;;;;5064057;28;20359;-80
2021/08/02 12:46:33;;;;;;;5.60;2.30;;;;;;;;;;5068016;28;20017;-84
2021/08/02 12:48:58;;;;;;;4.20;2.17;;;;;;;;;;5074296;28;20239;-84
2021/08/02 12:51:26;;;;;;;3.53;1.97;;;;;;;;;;5045991;28;20036;-83
2021/08/02 12:53:51;;;;;;;3.60;2.20;;;;;;;;;;5069914;28;20693;-83
2021/08/02 12:56:21;;;;;;;6.97;2.78;;;;;;;;;;5058154;28;20052;-83
2021/08/02 12:58:47;;;;;;;4.07;2.40;;;;;;;;;;5060493;28;20028;-84
2021/08/02 13:01:18;;;;;;;5.07;2.65;;;;;;;;;;5059978;28;20012;-85
2021/08/02 13:03:45;;;;;;;5.40;2.35;;;;;;;;;;5050162;28;20036;-83
2021/08/02 13:06:14;;;;;;;3.90;2.50;;;;;;;;;;5057255;28;20138;-83
2021/08/02 13:08:40;;;;;;;4.93;2.58;;;;;;;;;;5057126;28;20012;-83
2021/08/02 13:11:05;;;;;;;3.67;2.40;;;;;;;;;;5067377;28;20115;-84
2021/08/02 13:13:33;;;;;;;3.13;2.30;;;;;;;;;;5077345;28;20095;-85
2021/08/02 13:15:59;;;;;;;4.72;2.15;;;;;;;;;;5068477;28;20013;-84
2021/08/02 13:18:24;;;;;;;2.58;1.67;;;;;;;;;;5074851;28;20029;-84
2021/08/02 13:20:50;;;;;;;4.45;1.90;;;;;;;;;;5068091;28;20017;-85
2021/08/02 13:28:35;;;;;;;2.22;1.60;;;;;;;;;;5065096;28;20028;-84
2021/08/02 13:31:00;;;;;;;2.05;1.63;;;;;;;;;;5061400;28;20021;-89
2021/08/02 13:33:26;;;;;;;3.10;1.48;;;;;;;;;;5060050;28;20036;-83
2021/08/02 13:35:56;;;;;;;2.80;1.70;;;;;;;;;;5055731;28;20032;-83
2021/08/02 13:38:26;;;;;;;4.38;1.70;;;;;;;;;;5071788;28;20025;-83
2021/08/02 13:40:52;;;;;;;1.83;1.58;;;;;;;;;;5070722;28;20024;-82
2021/08/02 13:43:22;;;;;;;3.97;1.73;;;;;;;;;;5065721;28;20402;-84
2021/08/02 13:45:47;;;;;;;6.53;1.77;;;;;;;;;;5054502;28;20403;-83
2021/08/02 13:48:13;;;;;;;1.88;1.50;;;;;;;;;;5059594;28;20060;-83
2021/08/02 13:50:38;;;;;;;2.45;1.75;;;;;;;;;;5073823;28;20446;-84
2021/08/02 13:53:04;;;;;;;1.88;1.50;;;;;;;;;;5065552;28;20119;-84
2021/08/02 13:55:32;;;;;;;5.35;2.10;;;;;;;;;;5060789;28;20028;-84
2021/08/02 13:58:00;;;;;;;3.15;1.77;;;;;;;;;;5060499;28;20120;-83
2021/08/02 14:00:26;;;;;;;3.85;1.80;;;;;;;;;;5057443;28;20029;-83
2021/08/02 14:02:56;;;;;;;3.72;2.40;;;;;;;;;;5053595;28;20025;-84
2021/08/02 14:05:22;;;;;;;4.40;2.47;;;;;;;;;;5036407;28;20021;-83
2021/08/02 14:07:47;;;;;;;5.50;3.00;;;;;;;;;;5063279;28;20025;-82
2021/08/02 14:10:12;;;;;;;4.97;3.00;;;;;;;;;;5062083;28;20359;-83
2021/08/02 14:12:38;;;;;;;5.33;2.60;;;;;;;;;;5069744;28;20325;-82
2021/08/02 14:15:05;;;;;;;4.65;2.15;;;;;;;;;;5073538;28;20346;-83
2021/08/02 14:17:37;;;;;;;3.85;2.50;;;;;;;;;;5065238;28;20009;-83
2021/08/02 14:20:05;;;;;;;3.58;2.22;;;;;;;;;;5054095;28;20021;-84
2021/08/02 14:22:31;;;;;;;5.57;2.72;;;;;;;;;;5067569;28;20107;-84
2021/08/02 14:24:59;;;;;;;4.50;2.85;;;;;;;;;;5072230;28;20020;-84
2021/08/02 14:27:24;;;;;;;3.92;2.72;;;;;;;;;;5067793;28;20032;-83
2021/08/02 14:29:52;;;;;;;2.93;2.23;;;;;;;;;;5073150;28;20017;-84
2021/08/02 14:32:18;;;;;;;3.55;2.55;;;;;;;;;;5073697;28;20028;-85
2021/08/02 14:34:43;;;;;;;5.13;2.60;;;;;;;;;;5072837;28;20022;-85
2021/08/02 14:37:11;;;;;;;6.77;3.40;;;;;;;;;;5073622;28;20035;-85
2021/08/02 14:39:44;;;;;;;4.30;2.67;;;;;;;;;;5074672;28;20277;-85
2021/08/02 14:42:09;;;;;;;5.13;2.85;;;;;;;;;;5068040;28;20035;-84
2021/08/02 14:44:39;;;;;;;5.93;2.90;;;;;;;;;;5049539;28;20020;-84